TimeEDT,TemperatureF,Dew PointF,Humidity,Sea Level PressureIn,VisibilityMPH,Wind Direction,Wind SpeedMPH,Gust SpeedMPH,PrecipitationIn,Events,Conditions,WindDirDegrees,DateUTC
12:51 AM,64.9,55.0,70,29.89,10.0,SW,8.1,-,0.00,,Overcast,220,2012-10-06 04:51:00
1:51 AM,64.0,55.9,75,29.87,10.0,WSW,6.9,-,N/A,,Overcast,240,2012-10-06 05:51:00
2:51 AM,60.8,57.2,88,29.86,10.0,SSE,5.8,-,N/A,,Mostly Cloudy,150,2012-10-06 06:51:00
3:51 AM,61.0,55.9,83,29.82,10.0,Calm,Calm,-,N/A,,Overcast,0,2012-10-06 07:51:00
4:51 AM,61.0,57.0,87,29.81,10.0,South,6.9,-,N/A,,Overcast,190,2012-10-06 08:51:00
5:51 AM,61.0,57.0,87,29.78,10.0,South,11.5,-,N/A,,Overcast,180,2012-10-06 09:51:00
6:51 AM,61.0,57.0,87,29.78,10.0,SSW,8.1,-,N/A,,Partly Cloudy,200,2012-10-06 10:51:00
7:51 AM,60.8,57.2,88,29.77,9.0,South,10.4,-,N/A,,Clear,190,2012-10-06 11:51:00
8:51 AM,62.1,57.0,84,29.75,9.0,South,11.5,-,N/A,,Clear,170,2012-10-06 12:51:00
9:51 AM,63.0,57.0,81,29.73,10.0,SSE,12.7,-,N/A,,Scattered Clouds,160,2012-10-06 13:51:00
10:51 AM,66.0,55.9,70,29.72,10.0,SSW,8.1,-,N/A,,Overcast,200,2012-10-06 14:51:00
11:51 AM,62.1,57.0,84,29.73,7.0,Variable,6.9,-,0.03,Rain,Light Rain,0,2012-10-06 15:51:00
12:37 PM,53.6,51.8,94,29.75,10.0,NW,12.7,19.6,0.02,Rain,Light Rain,320,2012-10-06 16:37:00
12:49 PM,51.8,51.8,100,29.75,3.0,NW,13.8,25.3,0.06,Rain,Rain,320,2012-10-06 16:49:00
12:51 PM,52.0,50.0,93,29.76,4.0,NW,10.4,21.9,0.06,Rain,Light Rain,310,2012-10-06 16:51:00
12:58 PM,51.8,50.0,94,29.76,10.0,WNW,8.1,17.3,0.00,Rain,Light Rain,300,2012-10-06 16:58:00
1:51 PM,50.0,50.0,100,29.78,8.0,NW,8.1,-,0.00,Rain,Light Rain,310,2012-10-06 17:51:00
2:07 PM,50.0,48.2,94,29.78,10.0,NW,8.1,-,0.01,Rain,Light Rain,320,2012-10-06 18:07:00
2:51 PM,50.0,48.9,96,29.81,10.0,NW,11.5,-,0.02,Rain,Light Rain,310,2012-10-06 18:51:00
3:47 PM,50.0,48.2,94,29.83,6.0,Variable,3.5,-,0.01,Rain,Light Rain,0,2012-10-06 19:47:00
3:51 PM,50.0,48.2,94,29.83,6.0,Calm,Calm,-,N/A,Rain,Light Rain,0,2012-10-06 19:51:00
4:06 PM,50.0,48.2,94,29.82,10.0,Calm,Calm,-,0.00,Rain,Light Rain,0,2012-10-06 20:06:00
4:39 PM,50.0,48.2,94,29.82,10.0,NNE,3.5,-,0.00,Rain,Light Rain,30,2012-10-06 20:39:00
4:51 PM,50.0,48.0,93,29.84,10.0,Calm,Calm,-,0.00,,Overcast,0,2012-10-06 20:51:00
5:00 PM,50.0,48.2,94,29.83,10.0,Calm,Calm,-,N/A,,Overcast,0,2012-10-06 21:00:00
5:51 PM,50.0,48.2,94,29.85,10.0,Calm,Calm,-,N/A,,Overcast,0,2012-10-06 21:51:00
6:10 PM,48.2,48.2,100,29.85,10.0,Calm,Calm,-,N/A,,Overcast,0,2012-10-06 22:10:00
6:51 PM,50.0,46.4,87,29.86,10.0,West,3.5,-,N/A,,Overcast,280,2012-10-06 22:51:00
7:43 PM,48.2,44.6,87,29.87,10.0,West,5.8,-,0.00,,Mostly Cloudy,260,2012-10-06 23:43:00
7:51 PM,48.0,44.1,86,29.88,10.0,WSW,5.8,-,0.00,,Mostly Cloudy,250,2012-10-06 23:51:00
8:51 PM,48.0,37.9,68,29.90,10.0,West,6.9,-,0.01,,Clear,260,2012-10-07 00:51:00
9:51 PM,46.9,39.0,74,29.92,10.0,West,9.2,-,N/A,,Mostly Cloudy,260,2012-10-07 01:51:00
10:51 PM,46.9,37.0,68,29.94,10.0,Variable,6.9,-,N/A,,Clear,0,2012-10-07 02:51:00
11:51 PM,46.0,36.0,68,29.96,10.0,Variable,4.6,-,N/A,,Clear,0,2012-10-07 03:51:00